sensor_id;sensor_type;location;lat;lon;timestamp;pressure;altitude;pressure_sealevel;temperature;humidity
36258;BME280;22294;52.044;4.582;2023-04-02T00:01:02;77071.66;;;-144.37;100.00
36258;BME280;22294;52.044;4.582;2023-04-02T00:08:57;77071.66;;;-144.37;100.00
36258;BME280;22294;52.044;4.582;2023-04-02T00:11:32;77092.13;;;-144.37;100.00
36258;BME280;22294;52.044;4.582;2023-04-02T00:13:59;77108.47;;;-144.37;100.00
36258;BME280;22294;52.044;4.582;2023-04-02T00:16:25;77106.44;;;-144.37;100.00
36258;BME280;22294;52.044;4.582;2023-04-02T00:18:52;77110.53;;;-144.37;100.00
36258;BME280;22294;52.044;4.582;2023-04-02T00:21:23;77112.56;;;-144.37;100.00
36258;BME280;22294;52.044;4.582;2023-04-02T00:23:52;77130.97;;;-144.37;100.00
36258;BME280;22294;52.044;4.582;2023-04-02T00:26:31;77128.94;;;-144.37;100.00
36258;BME280;22294;52.044;4.582;2023-04-02T00:28:58;77139.16;;;-144.37;100.00
36258;BME280;22294;52.044;4.582;2023-04-02T00:31:23;77147.34;;;-144.37;100.00
36258;BME280;22294;52.044;4.582;2023-04-02T00:33:49;77143.25;;;-144.37;100.00
36258;BME280;22294;52.044;4.582;2023-04-02T00:36:14;77151.44;;;-144.37;100.00
36258;BME280;22294;52.044;4.582;2023-04-02T00:38:43;77159.63;;;-144.37;100.00
36258;BME280;22294;52.044;4.582;2023-04-02T00:41:12;77165.75;;;-144.37;100.00
36258;BME280;22294;52.044;4.582;2023-04-02T00:43:38;77159.63;;;-144.37;100.00
36258;BME280;22294;52.044;4.582;2023-04-02T00:46:13;77165.75;;;-144.37;100.00
36258;BME280;22294;52.044;4.582;2023-04-02T00:53:49;77182.13;;;-144.37;100.00
36258;BME280;22294;52.044;4.582;2023-04-02T00:56:38;77184.16;;;-144.37;100.00
36258;BME280;22294;52.044;4.582;2023-04-02T00:59:03;77184.16;;;-144.37;100.00
36258;BME280;22294;52.044;4.582;2023-04-02T01:01:33;77216.91;;;-144.37;100.00
36258;BME280;22294;52.044;4.582;2023-04-02T01:04:00;77194.41;;;-144.37;100.00
36258;BME280;22294;52.044;4.582;2023-04-02T01:06:31;77208.72;;;-144.37;100.00
36258;BME280;22294;52.044;4.582;2023-04-02T01:24:44;77231.22;;;-144.37;100.00
36258;BME280;22294;52.044;4.582;2023-04-02T01:27:17;77235.31;;;-144.37;100.00
36258;BME280;22294;52.044;4.582;2023-04-02T01:29:52;77253.72;;;-144.37;100.00
36258;BME280;22294;52.044;4.582;2023-04-02T01:32:20;77237.34;;;-144.37;100.00
36258;BME280;22294;52.044;4.582;2023-04-02T01:34:47;77241.44;;;-144.37;100.00
36258;BME280;22294;52.044;4.582;2023-04-02T01:37:26;77253.72;;;-144.37;100.00
36258;BME280;22294;52.044;4.582;2023-04-02T01:45:10;77274.19;;;-144.37;100.00
36258;BME280;22294;52.044;4.582;2023-04-02T01:47:37;77272.13;;;-144.37;100.00
36258;BME280;22294;52.044;4.582;2023-04-02T01:52:44;77280.31;;;-144.37;100.00
36258;BME280;22294;52.044;4.582;2023-04-02T01:55:12;77290.53;;;-144.37;100.00
36258;BME280;22294;52.044;4.582;2023-04-02T01:57:41;77311.00;;;-144.37;100.00
36258;BME280;22294;52.044;4.582;2023-04-02T02:00:10;77313.03;;;-144.37;100.00
36258;BME280;22294;52.044;4.582;2023-04-02T02:02:39;77308.97;;;-144.37;100.00
36258;BME280;22294;52.044;4.582;2023-04-02T02:05:05;77325.31;;;-144.37;100.00
36258;BME280;22294;52.044;4.582;2023-04-02T02:07:36;77327.38;;;-144.37;100.00
36258;BME280;22294;52.044;4.582;2023-04-02T02:10:01;77337.59;;;-144.37;100.00
36258;BME280;22294;52.044;4.582;2023-04-02T02:12:27;77331.47;;;-144.37;100.00
36258;BME280;22294;52.044;4.582;2023-04-02T02:14:52;77360.09;;;-144.37;100.00
36258;BME280;22294;52.044;4.582;2023-04-02T02:17:18;77378.50;;;-144.37;100.00
36258;BME280;22294;52.044;4.582;2023-04-02T02:19:48;77378.50;;;-144.37;100.00
36258;BME280;22294;52.044;4.582;2023-04-02T02:22:25;77382.59;;;-144.37;100.00
36258;BME280;22294;52.044;4.582;2023-04-02T02:24:52;77378.50;;;-144.37;100.00
36258;BME280;22294;52.044;4.582;2023-04-02T02:29:57;77394.88;;;-144.37;100.00
36258;BME280;22294;52.044;4.582;2023-04-02T02:32:26;77409.19;;;-144.37;100.00
36258;BME280;22294;52.044;4.582;2023-04-02T02:35:03;77405.09;;;-144.37;100.00
36258;BME280;22294;52.044;4.582;2023-04-02T02:37:34;77409.19;;;-144.37;100.00
36258;BME280;22294;52.044;4.582;2023-04-02T02:40:00;77415.34;;;-144.37;100.00
36258;BME280;22294;52.044;4.582;2023-04-02T02:42:37;77413.28;;;-144.37;100.00
36258;BME280;22294;52.044;4.582;2023-04-02T02:45:04;77417.38;;;-144.37;100.00
36258;BME280;22294;52.044;4.582;2023-04-02T02:47:32;77415.34;;;-144.37;100.00
36258;BME280;22294;52.044;4.582;2023-04-02T02:49:59;77423.53;;;-144.37;100.00
36258;BME280;22294;52.044;4.582;2023-04-02T02:52:27;77431.69;;;-144.37;100.00
36258;BME280;22294;52.044;4.582;2023-04-02T02:54:56;77464.44;;;-144.37;100.00
36258;BME280;22294;52.044;4.582;2023-04-02T02:57:27;77450.13;;;-144.37;100.00
36258;BME280;22294;52.044;4.582;2023-04-02T02:59:56;77468.53;;;-144.37;100.00
36258;BME280;22294;52.044;4.582;2023-04-02T03:02:23;77476.72;;;-144.37;100.00
36258;BME280;22294;52.044;4.582;2023-04-02T03:04:49;77470.56;;;-144.37;100.00
36258;BME280;22294;52.044;4.582;2023-04-02T03:07:16;77450.13;;;-144.37;100.00
36258;BME280;22294;52.044;4.582;2023-04-02T03:17:40;77493.06;;;-144.37;100.00
36258;BME280;22294;52.044;4.582;2023-04-02T03:20:12;77499.22;;;-144.37;100.00
36258;BME280;22294;52.044;4.582;2023-04-02T03:22:41;77517.63;;;-144.37;100.00
36258;BME280;22294;52.044;4.582;2023-04-02T03:25:15;77521.72;;;-144.37;100.00
36258;BME280;22294;52.044;4.582;2023-04-02T03:27:43;77517.63;;;-144.37;100.00
36258;BME280;22294;52.044;4.582;2023-04-02T03:32:36;77527.84;;;-144.37;100.00
36258;BME280;22294;52.044;4.582;2023-04-02T03:35:07;77531.94;;;-144.37;100.00
36258;BME280;22294;52.044;4.582;2023-04-02T03:37:39;77540.13;;;-144.37;100.00
36258;BME280;22294;52.044;4.582;2023-04-02T03:40:08;77558.53;;;-144.37;100.00
36258;BME280;22294;52.044;4.582;2023-04-02T03:45:18;77574.91;;;-144.37;100.00
36258;BME280;22294;52.044;4.582;2023-04-02T03:47:48;77591.28;;;-144.37;100.00
36258;BME280;22294;52.044;4.582;2023-04-02T03:50:18;77613.78;;;-144.37;100.00
36258;BME280;22294;52.044;4.582;2023-04-02T03:52:45;77603.56;;;-144.37;100.00
36258;BME280;22294;52.044;4.582;2023-04-02T03:55:13;77601.50;;;-144.37;100.00
36258;BME280;22294;52.044;4.582;2023-04-02T04:02:39;77636.28;;;-144.37;100.00
36258;BME280;22294;52.044;4.582;2023-04-02T04:05:06;77638.34;;;-144.37;100.00
36258;BME280;22294;52.044;4.582;2023-04-02T04:07:42;77642.44;;;-144.37;100.00
36258;BME280;22294;52.044;4.582;2023-04-02T04:10:08;77640.38;;;-144.37;100.00
36258;BME280;22294;52.044;4.582;2023-04-02T04:12:47;77646.53;;;-144.37;100.00
36258;BME280;22294;52.044;4.582;2023-04-02T04:15:15;77646.53;;;-144.37;100.00
36258;BME280;22294;52.044;4.582;2023-04-02T04:20:25;77656.75;;;-144.37;100.00
36258;BME280;22294;52.044;4.582;2023-04-02T04:22:53;77669.03;;;-144.37;100.00
36258;BME280;22294;52.044;4.582;2023-04-02T04:25:27;77691.53;;;-144.37;100.00
36258;BME280;22294;52.044;4.582;2023-04-02T04:28:02;77703.81;;;-144.37;100.00
36258;BME280;22294;52.044;4.582;2023-04-02T04:33:38;77724.25;;;-144.37;100.00
36258;BME280;22294;52.044;4.582;2023-04-02T04:36:13;77726.31;;;-144.37;100.00
36258;BME280;22294;52.044;4.582;2023-04-02T04:38:44;77722.22;;;-144.37;100.00
36258;BME280;22294;52.044;4.582;2023-04-02T04:41:14;77746.78;;;-144.37;100.00
36258;BME280;22294;52.044;4.582;2023-04-02T04:44:41;77754.97;;;-144.37;100.00
36258;BME280;22294;52.044;4.582;2023-04-02T04:46:39;77773.38;;;-144.37;100.00
36258;BME280;22294;52.044;4.582;2023-04-02T04:51:59;77765.19;;;-144.37;100.00
36258;BME280;22294;52.044;4.582;2023-04-02T04:54:32;77799.97;;;-144.37;100.00
36258;BME280;22294;52.044;4.582;2023-04-02T04:57:02;77799.97;;;-144.37;100.00
36258;BME280;22294;52.044;4.582;2023-04-02T04:59:31;77797.91;;;-144.37;100.00
36258;BME280;22294;52.044;4.582;2023-04-02T05:02:08;77816.34;;;-144.37;100.00
36258;BME280;22294;52.044;4.582;2023-04-02T05:04:39;77810.19;;;-144.37;100.00
36258;BME280;22294;52.044;4.582;2023-04-02T05:07:09;77820.44;;;-144.37;100.00
36258;BME280;22294;52.044;4.582;2023-04-02T05:09:37;77832.69;;;-144.37;100.00
36258;BME280;22294;52.044;4.582;2023-04-02T05:14:37;77838.84;;;-144.37;100.00
36258;BME280;22294;52.044;4.582;2023-04-02T05:17:08;77842.94;;;-144.37;100.00
36258;BME280;22294;52.044;4.582;2023-04-02T05:19:38;77851.13;;;-144.37;100.00
36258;BME280;22294;52.044;4.582;2023-04-02T05:22:19;77859.31;;;-144.37;100.00
36258;BME280;22294;52.044;4.582;2023-04-02T05:24:52;77859.31;;;-144.37;100.00
36258;BME280;22294;52.044;4.582;2023-04-02T05:27:27;77867.47;;;-144.37;100.00
36258;BME280;22294;52.044;4.582;2023-04-02T05:30:38;77873.63;;;-144.37;100.00
36258;BME280;22294;52.044;4.582;2023-04-02T05:33:03;77873.63;;;-144.37;100.00
36258;BME280;22294;52.044;4.582;2023-04-02T05:35:32;77887.94;;;-144.37;100.00
36258;BME280;22294;52.044;4.582;2023-04-02T05:37:59;77904.31;;;-144.37;100.00
36258;BME280;22294;52.044;4.582;2023-04-02T05:40:37;77910.44;;;-144.37;100.00
36258;BME280;22294;52.044;4.582;2023-04-02T05:43:06;77932.97;;;-144.37;100.00
36258;BME280;22294;52.044;4.582;2023-04-02T05:45:33;77926.81;;;-144.37;100.00
36258;BME280;22294;52.044;4.582;2023-04-02T05:48:00;77949.31;;;-144.37;100.00
36258;BME280;22294;52.044;4.582;2023-04-02T05:50:29;77967.75;;;-144.37;100.00
36258;BME280;22294;52.044;4.582;2023-04-02T05:53:44;77975.94;;;-144.37;100.00
36258;BME280;22294;52.044;4.582;2023-04-02T05:55:53;78010.72;;;-144.37;100.00
36258;BME280;22294;52.044;4.582;2023-04-02T05:58:28;78031.16;;;-144.37;100.00
36258;BME280;22294;52.044;4.582;2023-04-02T06:03:50;78041.41;;;-144.37;100.00
36258;BME280;22294;52.044;4.582;2023-04-02T06:06:23;78039.34;;;-144.37;100.00
36258;BME280;22294;52.044;4.582;2023-04-02T06:08:54;78039.34;;;-144.37;100.00
36258;BME280;22294;52.044;4.582;2023-04-02T06:11:31;78053.69;;;-144.37;100.00
36258;BME280;22294;52.044;4.582;2023-04-02T06:14:02;78063.91;;;-144.37;100.00
36258;BME280;22294;52.044;4.582;2023-04-02T06:16:28;78070.03;;;-144.37;100.00
36258;BME280;22294;52.044;4.582;2023-04-02T06:18:54;78076.19;;;-144.37;100.00
36258;BME280;22294;52.044;4.582;2023-04-02T06:21:20;78088.47;;;-144.37;99.64
36258;BME280;22294;52.044;4.582;2023-04-02T06:23:49;78092.56;;;-144.37;99.78
36258;BME280;22294;52.044;4.582;2023-04-02T06:28:46;78108.94;;;-144.37;98.57
36258;BME280;22294;52.044;4.582;2023-04-02T06:31:55;78129.38;;;-144.37;97.54
36258;BME280;22294;52.044;4.582;2023-04-02T06:34:02;78147.81;;;-144.37;97.26
36258;BME280;22294;52.044;4.582;2023-04-02T06:36:27;78141.66;;;-144.37;96.51
36258;BME280;22294;52.044;4.582;2023-04-02T06:38:54;78164.16;;;-144.37;96.05
36258;BME280;22294;52.044;4.582;2023-04-02T06:41:22;78164.16;;;-144.37;94.37
36258;BME280;22294;52.044;4.582;2023-04-02T06:43:53;78151.91;;;-144.37;94.71
36258;BME280;22294;52.044;4.582;2023-04-02T06:46:27;78162.13;;;-144.37;95.29
36258;BME280;22294;52.044;4.582;2023-04-02T06:48:56;78178.50;;;-144.37;94.73
36258;BME280;22294;52.044;4.582;2023-04-02T06:51:25;78176.44;;;-144.37;95.28
36258;BME280;22294;52.044;4.582;2023-04-02T06:53:52;78194.88;;;-144.37;95.40
36258;BME280;22294;52.044;4.582;2023-04-02T06:58:42;78184.63;;;-144.37;94.97
36258;BME280;22294;52.044;4.582;2023-04-02T07:01:08;78233.75;;;-144.37;94.10
36258;BME280;22294;52.044;4.582;2023-04-02T07:03:39;78239.88;;;-144.37;94.52
36258;BME280;22294;52.044;4.582;2023-04-02T07:06:05;78260.34;;;-144.37;94.45
36258;BME280;22294;52.044;4.582;2023-04-02T07:08:30;78243.97;;;-144.37;94.75
36258;BME280;22294;52.044;4.582;2023-04-02T07:10:56;78250.09;;;-144.37;95.12
36258;BME280;22294;52.044;4.582;2023-04-02T07:13:21;78235.78;;;-144.37;95.76
36258;BME280;22294;52.044;4.582;2023-04-02T07:15:49;78276.72;;;-144.37;95.00
36258;BME280;22294;52.044;4.582;2023-04-02T07:20:43;78297.19;;;-144.37;94.05
36258;BME280;22294;52.044;4.582;2023-04-02T07:23:08;78297.19;;;-144.37;94.71
36258;BME280;22294;52.044;4.582;2023-04-02T07:25:34;78295.13;;;-144.37;94.89
36258;BME280;22294;52.044;4.582;2023-04-02T07:28:00;78293.09;;;-144.37;94.81
36258;BME280;22294;52.044;4.582;2023-04-02T07:30:25;78303.31;;;-144.37;94.76
36258;BME280;22294;52.044;4.582;2023-04-02T07:32:50;78307.41;;;-144.37;94.92
36258;BME280;22294;52.044;4.582;2023-04-02T07:35:15;78313.53;;;-144.37;95.00
36258;BME280;22294;52.044;4.582;2023-04-02T07:37:41;78313.53;;;-144.37;95.62
36258;BME280;22294;52.044;4.582;2023-04-02T07:40:28;78313.53;;;-144.37;95.91
36258;BME280;22294;52.044;4.582;2023-04-02T07:42:53;78301.25;;;-144.37;96.58
36258;BME280;22294;52.044;4.582;2023-04-02T07:45:18;78286.94;;;-144.37;95.45
36258;BME280;22294;52.044;4.582;2023-04-02T07:47:43;78307.41;;;-144.37;95.95
36258;BME280;22294;52.044;4.582;2023-04-02T07:50:09;78315.59;;;-144.37;95.41
36258;BME280;22294;52.044;4.582;2023-04-02T07:52:41;78311.50;;;-144.37;96.44
36258;BME280;22294;52.044;4.582;2023-04-02T07:55:08;78346.28;;;-144.37;95.92
36258;BME280;22294;52.044;4.582;2023-04-02T07:57:36;78327.88;;;-144.37;97.06
36258;BME280;22294;52.044;4.582;2023-04-02T08:00:03;78325.81;;;-144.37;96.80
36258;BME280;22294;52.044;4.582;2023-04-02T08:02:28;78340.16;;;-144.37;96.64
36258;BME280;22294;52.044;4.582;2023-04-02T08:04:54;78338.09;;;-144.37;97.22
36258;BME280;22294;52.044;4.582;2023-04-02T08:07:19;78334.00;;;-144.37;97.86
36258;BME280;22294;52.044;4.582;2023-04-02T08:09:44;78342.19;;;-144.37;97.15
36258;BME280;22294;52.044;4.582;2023-04-02T08:12:13;78329.91;;;-144.37;98.02
36258;BME280;22294;52.044;4.582;2023-04-02T08:14:42;78331.97;;;-144.37;98.42
36258;BME280;22294;52.044;4.582;2023-04-02T08:17:07;78342.19;;;-144.37;98.16
36258;BME280;22294;52.044;4.582;2023-04-02T08:19:32;78409.72;;;-144.37;97.06
36258;BME280;22294;52.044;4.582;2023-04-02T08:21:58;78381.06;;;-144.37;97.84
36258;BME280;22294;52.044;4.582;2023-04-02T08:24:24;78385.16;;;-144.37;97.79
36258;BME280;22294;52.044;4.582;2023-04-02T08:26:49;78372.88;;;-144.37;98.34
36258;BME280;22294;52.044;4.582;2023-04-02T08:29:15;78379.03;;;-144.37;97.56
36258;BME280;22294;52.044;4.582;2023-04-02T08:31:40;78387.22;;;-144.37;96.87
36258;BME280;22294;52.044;4.582;2023-04-02T08:34:05;78381.06;;;-144.37;97.22
36258;BME280;22294;52.044;4.582;2023-04-02T08:36:33;78403.59;;;-144.37;96.93
36258;BME280;22294;52.044;4.582;2023-04-02T08:39:00;78424.03;;;-144.37;96.23
36258;BME280;22294;52.044;4.582;2023-04-02T08:41:27;78428.13;;;-144.37;96.31
36258;BME280;22294;52.044;4.582;2023-04-02T08:46:22;78448.59;;;-144.37;95.57
36258;BME280;22294;52.044;4.582;2023-04-02T08:48:52;78452.69;;;-144.37;94.97
36258;BME280;22294;52.044;4.582;2023-04-02T08:51:29;78440.41;;;-144.37;94.29
36258;BME280;22294;52.044;4.582;2023-04-02T08:54:08;78419.94;;;-144.37;94.60
36258;BME280;22294;52.044;4.582;2023-04-02T08:56:37;78413.81;;;-144.37;93.61
36258;BME280;22294;52.044;4.582;2023-04-02T09:01:56;78395.41;;;-144.37;93.85
36258;BME280;22294;52.044;4.582;2023-04-02T09:04:23;78397.44;;;-144.37;93.00
36258;BME280;22294;52.044;4.582;2023-04-02T09:06:51;78383.13;;;-144.37;92.20
36258;BME280;22294;52.044;4.582;2023-04-02T09:09:18;78385.16;;;-144.37;90.95
36258;BME280;22294;52.044;4.582;2023-04-02T09:11:52;78387.22;;;-144.37;90.60
36258;BME280;22294;52.044;4.582;2023-04-02T09:14:41;78389.25;;;-144.37;89.86
36258;BME280;22294;52.044;4.582;2023-04-02T09:17:04;78395.41;;;-144.37;89.74
36258;BME280;22294;52.044;4.582;2023-04-02T09:19:37;78395.41;;;-144.37;88.60
36258;BME280;22294;52.044;4.582;2023-04-02T09:22:06;78395.41;;;-144.37;88.59
36258;BME280;22294;52.044;4.582;2023-04-02T09:24:33;78403.59;;;-144.37;87.62
36258;BME280;22294;52.044;4.582;2023-04-02T09:26:58;78424.03;;;-144.37;86.15
36258;BME280;22294;52.044;4.582;2023-04-02T09:34:37;78354.47;;;-144.37;83.64
36258;BME280;22294;52.044;4.582;2023-04-02T09:37:05;78321.72;;;-144.37;85.36
36258;BME280;22294;52.044;4.582;2023-04-02T09:39:31;78348.34;;;-144.37;83.76
36258;BME280;22294;52.044;4.582;2023-04-02T09:41:56;78346.28;;;-144.37;83.08
36258;BME280;22294;52.044;4.582;2023-04-02T09:44:22;78342.19;;;-144.37;82.45
36258;BME280;22294;52.044;4.582;2023-04-02T09:46:54;78344.25;;;-144.37;80.99
36258;BME280;22294;52.044;4.582;2023-04-02T09:49:21;78329.91;;;-144.37;81.72
36258;BME280;22294;52.044;4.582;2023-04-02T09:52:04;78329.91;;;-144.37;81.54
36258;BME280;22294;52.044;4.582;2023-04-02T09:54:30;78317.63;;;-144.37;82.52
36258;BME280;22294;52.044;4.582;2023-04-02T09:56:59;78301.25;;;-144.37;82.06
36258;BME280;22294;52.044;4.582;2023-04-02T09:59:25;78278.75;;;-144.37;81.90
36258;BME280;22294;52.044;4.582;2023-04-02T10:01:58;78239.88;;;-144.37;82.30
36258;BME280;22294;52.044;4.582;2023-04-02T10:04:35;78233.75;;;-144.37;80.80
36258;BME280;22294;52.044;4.582;2023-04-02T10:07:02;78239.88;;;-144.37;77.96
36258;BME280;22294;52.044;4.582;2023-04-02T10:09:35;78217.38;;;-144.37;78.55
36258;BME280;22294;52.044;4.582;2023-04-02T10:12:00;78213.28;;;-144.37;79.48
36258;BME280;22294;52.044;4.582;2023-04-02T10:14:34;78196.91;;;-144.37;79.83
36258;BME280;22294;52.044;4.582;2023-04-02T10:17:21;78203.06;;;-144.37;78.31
36258;BME280;22294;52.044;4.582;2023-04-02T10:19:55;78198.97;;;-144.37;77.28
36258;BME280;22294;52.044;4.582;2023-04-02T10:22:23;78184.63;;;-144.37;77.40
36258;BME280;22294;52.044;4.582;2023-04-02T10:24:48;78188.72;;;-144.37;74.97
36258;BME280;22294;52.044;4.582;2023-04-02T10:27:20;78201.00;;;-144.37;76.14
36258;BME280;22294;52.044;4.582;2023-04-02T10:29:54;78203.06;;;-144.37;77.22
36258;BME280;22294;52.044;4.582;2023-04-02T10:34:59;78209.19;;;-144.37;77.31
36258;BME280;22294;52.044;4.582;2023-04-02T10:39:56;78172.34;;;-144.37;76.25
36258;BME280;22294;52.044;4.582;2023-04-02T10:45:03;78176.44;;;-144.37;75.41
36258;BME280;22294;52.044;4.582;2023-04-02T10:47:43;78184.63;;;-144.37;73.32
36258;BME280;22294;52.044;4.582;2023-04-02T10:50:30;78155.97;;;-144.37;75.17
36258;BME280;22294;52.044;4.582;2023-04-02T10:53:05;78162.13;;;-144.37;74.42
36258;BME280;22294;52.044;4.582;2023-04-02T10:55:36;78158.03;;;-144.37;74.29
36258;BME280;22294;52.044;4.582;2023-04-02T10:58:07;78160.06;;;-144.37;73.49
36258;BME280;22294;52.044;4.582;2023-04-02T11:00:38;78127.34;;;-144.37;73.28
36258;BME280;22294;52.044;4.582;2023-04-02T11:03:06;78125.28;;;-144.37;71.19
36258;BME280;22294;52.044;4.582;2023-04-02T11:10:43;78100.75;;;-144.37;72.52
36258;BME280;22294;52.044;4.582;2023-04-02T11:13:21;78082.31;;;-144.37;71.30
36258;BME280;22294;52.044;4.582;2023-04-02T11:15:50;78059.81;;;-144.37;71.98
36258;BME280;22294;52.044;4.582;2023-04-02T11:18:22;78057.78;;;-144.37;71.45
36258;BME280;22294;52.044;4.582;2023-04-02T11:23:17;78057.78;;;-144.37;69.94
36258;BME280;22294;52.044;4.582;2023-04-02T11:25:43;78059.81;;;-144.37;71.47
36258;BME280;22294;52.044;4.582;2023-04-02T11:30:38;78092.56;;;-144.37;68.34
36258;BME280;22294;52.044;4.582;2023-04-02T11:36:56;78059.81;;;-144.37;67.40
36258;BME280;22294;52.044;4.582;2023-04-02T11:38:52;78072.09;;;-144.37;67.49
36258;BME280;22294;52.044;4.582;2023-04-02T11:44:20;78043.44;;;-144.37;65.11
36258;BME280;22294;52.044;4.582;2023-04-02T11:46:46;78055.72;;;-144.37;64.29
36258;BME280;22294;52.044;4.582;2023-04-02T11:51:55;77990.25;;;-144.37;66.88
36258;BME280;22294;52.044;4.582;2023-04-02T11:54:25;77961.59;;;-144.37;66.61
36258;BME280;22294;52.044;4.582;2023-04-02T11:56:55;78020.94;;;-144.37;63.55
36258;BME280;22294;52.044;4.582;2023-04-02T11:59:28;78006.63;;;-144.37;64.10
36258;BME280;22294;52.044;4.582;2023-04-02T12:01:59;77992.28;;;-144.37;64.35
36258;BME280;22294;52.044;4.582;2023-04-02T12:04:47;78012.75;;;-144.37;63.81
36258;BME280;22294;52.044;4.582;2023-04-02T12:09:51;77988.19;;;-144.37;66.23
36258;BME280;22294;52.044;4.582;2023-04-02T12:12:24;78004.56;;;-144.37;65.89
36258;BME280;22294;52.044;4.582;2023-04-02T12:14:50;78016.84;;;-144.37;67.43
36258;BME280;22294;52.044;4.582;2023-04-02T12:17:37;78000.47;;;-144.37;67.75
36258;BME280;22294;52.044;4.582;2023-04-02T12:20:03;77957.50;;;-144.37;67.90
36258;BME280;22294;52.044;4.582;2023-04-02T12:22:34;77939.09;;;-144.37;68.29
36258;BME280;22294;52.044;4.582;2023-04-02T12:25:02;77947.28;;;-144.37;69.09
36258;BME280;22294;52.044;4.582;2023-04-02T12:27:29;77949.31;;;-144.37;65.71
36258;BME280;22294;52.044;4.582;2023-04-02T12:29:55;77965.69;;;-144.37;63.01
36258;BME280;22294;52.044;4.582;2023-04-02T12:32:27;77941.16;;;-144.37;64.20
36258;BME280;22294;52.044;4.582;2023-04-02T12:34:54;77918.63;;;-144.37;64.01
36258;BME280;22294;52.044;4.582;2023-04-02T12:37:24;77912.50;;;-144.37;62.66
36258;BME280;22294;52.044;4.582;2023-04-02T12:39:50;77900.22;;;-144.37;60.86
36258;BME280;22294;52.044;4.582;2023-04-02T12:42:24;77890.00;;;-144.37;61.81
36258;BME280;22294;52.044;4.582;2023-04-02T12:44:49;77900.22;;;-144.37;62.40
36258;BME280;22294;52.044;4.582;2023-04-02T12:47:14;77861.34;;;-144.37;63.40
36258;BME280;22294;52.044;4.582;2023-04-02T12:49:40;77867.47;;;-144.37;65.14
36258;BME280;22294;52.044;4.582;2023-04-02T12:52:13;77875.66;;;-144.37;64.49
36258;BME280;22294;52.044;4.582;2023-04-02T12:54:52;77887.94;;;-144.37;66.33
36258;BME280;22294;52.044;4.582;2023-04-02T12:59:50;77914.53;;;-144.37;64.96
36258;BME280;22294;52.044;4.582;2023-04-02T13:02:23;77894.09;;;-144.37;66.67
36258;BME280;22294;52.044;4.582;2023-04-02T13:04:49;77885.91;;;-144.37;65.69
36258;BME280;22294;52.044;4.582;2023-04-02T13:07:15;77885.91;;;-144.37;66.20
36258;BME280;22294;52.044;4.582;2023-04-02T13:09:44;77869.53;;;-144.37;65.61
36258;BME280;22294;52.044;4.582;2023-04-02T13:14:54;77879.75;;;-144.37;65.08
36258;BME280;22294;52.044;4.582;2023-04-02T13:17:36;77881.81;;;-144.37;63.83
36258;BME280;22294;52.044;4.582;2023-04-02T13:22:45;77855.22;;;-144.37;64.93
36258;BME280;22294;52.044;4.582;2023-04-02T13:25:11;77832.69;;;-144.37;65.81
36258;BME280;22294;52.044;4.582;2023-04-02T13:27:36;77855.22;;;-144.37;63.77
36258;BME280;22294;52.044;4.582;2023-04-02T13:30:17;77853.16;;;-144.37;64.26
36258;BME280;22294;52.044;4.582;2023-04-02T13:32:45;77851.13;;;-144.37;62.19
36258;BME280;22294;52.044;4.582;2023-04-02T13:35:11;77834.75;;;-144.37;64.05
36258;BME280;22294;52.044;4.582;2023-04-02T13:37:36;77861.34;;;-144.37;61.62
36258;BME280;22294;52.044;4.582;2023-04-02T13:40:01;77859.31;;;-144.37;59.34
36258;BME280;22294;52.044;4.582;2023-04-02T13:42:27;77847.03;;;-144.37;58.60
36258;BME280;22294;52.044;4.582;2023-04-02T13:44:52;77867.47;;;-144.37;57.52
36258;BME280;22294;52.044;4.582;2023-04-02T13:47:17;77838.84;;;-144.37;56.69
36258;BME280;22294;52.044;4.582;2023-04-02T13:49:43;77816.34;;;-144.37;60.24
36258;BME280;22294;52.044;4.582;2023-04-02T13:52:09;77810.19;;;-144.37;58.74
36258;BME280;22294;52.044;4.582;2023-04-02T13:54:47;77826.56;;;-144.37;57.38
36258;BME280;22294;52.044;4.582;2023-04-02T13:57:14;77824.53;;;-144.37;57.91
36258;BME280;22294;52.044;4.582;2023-04-02T13:59:39;77802.00;;;-144.37;58.80
36258;BME280;22294;52.044;4.582;2023-04-02T14:02:05;77771.31;;;-144.37;58.86
36258;BME280;22294;52.044;4.582;2023-04-02T14:04:34;77791.78;;;-144.37;58.49
36258;BME280;22294;52.044;4.582;2023-04-02T14:15:02;77802.00;;;-144.37;54.98
36258;BME280;22294;52.044;4.582;2023-04-02T14:23:02;77822.47;;;-144.37;57.88
36258;BME280;22294;52.044;4.582;2023-04-02T14:28:16;77834.75;;;-144.37;56.12
36258;BME280;22294;52.044;4.582;2023-04-02T14:30:58;77838.84;;;-144.37;56.23
36258;BME280;22294;52.044;4.582;2023-04-02T14:36:09;77822.47;;;-144.37;56.51
36258;BME280;22294;52.044;4.582;2023-04-02T14:41:32;77787.69;;;-144.37;55.81
36258;BME280;22294;52.044;4.582;2023-04-02T14:44:00;77775.41;;;-144.37;55.50
36258;BME280;22294;52.044;4.582;2023-04-02T14:46:27;77783.59;;;-144.37;54.36
36258;BME280;22294;52.044;4.582;2023-04-02T14:49:02;77808.16;;;-144.37;55.89
36258;BME280;22294;52.044;4.582;2023-04-02T14:51:36;77812.25;;;-144.37;55.82
36258;BME280;22294;52.044;4.582;2023-04-02T14:54:19;77820.44;;;-144.37;55.73
36258;BME280;22294;52.044;4.582;2023-04-02T14:56:53;77830.66;;;-144.37;56.86
36258;BME280;22294;52.044;4.582;2023-04-02T15:07:47;77824.53;;;-144.37;54.81
36258;BME280;22294;52.044;4.582;2023-04-02T15:10:33;77806.09;;;-144.37;55.25
36258;BME280;22294;52.044;4.582;2023-04-02T15:13:02;77795.88;;;-144.37;54.48
36258;BME280;22294;52.044;4.582;2023-04-02T15:15:44;77789.72;;;-144.37;54.52
36258;BME280;22294;52.044;4.582;2023-04-02T15:18:15;77793.81;;;-144.37;55.57
36258;BME280;22294;52.044;4.582;2023-04-02T15:23:33;77822.47;;;-144.37;54.17
36258;BME280;22294;52.044;4.582;2023-04-02T15:26:17;77802.00;;;-144.37;55.32